Airfield :







YOU CAN JOIN US ON...

 
LOGIN :

Register | Disclaimer

   EN    FR    IT 

 









Legend :    VFR   Marginal VFR   IFR   Intensive IFR   Very Intensive IFR
Visi :
Ceiling :
>= 8 km
>= 3000ft
5 to 8 km
1000 to 3000 ft
1500m to 5 km
500 to 1000 ft
800 to 1500m
200 to 500 ft
< 800m
< 200 ft
Symbols :   Thunderstorms  Fog  Heavy snow  Heavy precipitations  Wind > 20 kt







- Airport Elevation : 203 ft
- IATA code : YQY


CYQY - Sydney

CURRENT METAR :
  • 230600Z 35009KT 15SM -RA OVC045 03/02 A3024 RMK SC8 SLP244

EXPIRED METARs :
  • 230522Z 36004KT 15SM -RA OVC039 03/02 A3023 RMK SC8 SLP242
  • 230500Z 35004KT 15SM OVC038 03/03 A3023 RMK SC8 SLP240
  • 230453Z 36005KT 15SM OVC039 03/03 A3023 RMK SC8 SLP239
  • 230426Z 01008KT 15SM -RA FEW003 OVC055 03/03 A3023 RMK SF2SC6 SLP239
  • 230400Z 36007KT 15SM -RA OVC033 04/03 A3024 RMK SC8 SLP243
  • 230335Z 36005KT 15SM -RA OVC025 04/03 A3023 RMK SC8 SLP240

TAF AMD TAF CYQY
Valid from the 23 at 06:00 until the 23 at 18:00 UTC


230541Z 2306/2318 36008KT P6SM -RA OVC030
TEMPO 2306/2316 4SM -RA BR FEW004 OVC020
BECMG 2314/2316 06012KT
FM231600 06012KT 3/4SM -RA BR OVC002 RMK NXT FCST BY 231200Z
CZQM FIR / North America



MET'MAP, your aeronautical weather chart ! - Copyright ORBIFLY December 2007 - Disclaimer

ORBIFLY MET'MAP TEAM :

Programming & Development : Alexandra Zaïnal
Concept & Development : Baudouin d'Aumeries
Co-Development & Prog : Marc-Olivier Méhu
Technical & hardware support : Manuel Goepfert

Contact : metmap@orbifly.com




SOURCES & CREDITS :

   NOAA